PWSweather.com
Personal Weather Stations
Station Observations
KCAFRAZI5
West End Drive Area, Frazier Park, CA 93225

West End Drive AreaFrazier Park, CA 93225

Lat: 34.82109, Lon: -118.96053

Elevation: 4940

Station Type: Davis Vantage Pro 2

http://www.fpweather.com

Latest ConditionsUpdated 2:14:28 PM PDT Thursday, Sep 21, 2017
Currently Today's Max Today's Min Today's Average
Temperature 50.0°F10.0°C 51.3°F10.7°C 41.9°F5.5°C 47.4°F8.6°C
Dew Point 38.7°F3.7°C 43.8°F6.6°C 33.1°F0.6°C 37.8°F3.2°C
Winds 4.0 mph NW6.4 kmh NW 11.0 mph N17.7 kmh N - 3.3 mph 5.3 kmh
Wind Gusts 6.0 mph9.7 kmh 14.0 mph22.5 kmh - -
Humidity 65% 87% 56% 70%
Pressure 29.69 in1005.4 mb 29.72 in1006.4 mb 29.57 in1001.4 mb -
Hour Temp Dew Point Humidity Winds Wind Gusts Pressure Precip Precip Rate Daily Precip Total
02:14 PM 50.0°F10.0°C 38.7°F3.7°C 65% 4.0 mph NW6.4 kmh NW 6.0 mph9.7 kmh 29.69 in1005.4 mb 0.00 in0.0 mm 0.00 in0.0 mm 0.00 in0.0 mm
01:59 PM 49.8°F9.9°C 38.9°F3.8°C 66% 5.0 mph NNE8.0 kmh NNE 7.0 mph11.3 kmh 29.69 in1005.4 mb 0.00 in0.0 mm 0.00 in0.0 mm 0.00 in0.0 mm
01:44 PM 50.1°F10.1°C 38.4°F3.6°C 64% 4.0 mph N6.4 kmh N 6.0 mph9.7 kmh 29.71 in1006.1 mb 0.00 in0.0 mm 0.00 in0.0 mm 0.00 in0.0 mm
01:29 PM 48.7°F9.3°C 39.4°F4.1°C 70% 11.0 mph NE17.7 kmh NE 11.0 mph17.7 kmh 29.71 in1006.1 mb 0.00 in0.0 mm 0.00 in0.0 mm 0.00 in0.0 mm
01:14 PM 48.5°F9.2°C 39.5°F4.2°C 71% 7.0 mph N11.3 kmh N 14.0 mph22.5 kmh 29.72 in1006.4 mb 0.00 in0.0 mm 0.00 in0.0 mm 0.00 in0.0 mm
12:59 PM 48.4°F9.1°C 38.7°F3.7°C 69% 11.0 mph N17.7 kmh N 11.0 mph17.7 kmh 29.70 in1005.8 mb 0.00 in0.0 mm 0.00 in0.0 mm 0.00 in0.0 mm
12:44 PM 49.0°F9.4°C 38.5°F3.6°C 67% 5.0 mph N8.0 kmh N 9.0 mph14.5 kmh 29.71 in1006.1 mb 0.00 in0.0 mm 0.00 in0.0 mm 0.00 in0.0 mm
12:29 PM 49.1°F9.5°C 39.4°F4.1°C 69% 6.0 mph NNE9.7 kmh NNE 12.0 mph19.3 kmh 29.70 in1005.8 mb 0.00 in0.0 mm 0.00 in0.0 mm 0.00 in0.0 mm
12:14 PM 51.3°F10.7°C 38.7°F3.7°C 62% 8.0 mph N12.9 kmh N 11.0 mph17.7 kmh 29.69 in1005.4 mb 0.00 in0.0 mm 0.00 in0.0 mm 0.00 in0.0 mm
11:59 AM 51.2°F10.7°C 38.6°F3.7°C 62% Calm Calm 4.0 mph6.4 kmh 29.69 in1005.4 mb 0.00 in0.0 mm 0.00 in0.0 mm 0.00 in0.0 mm
11:44 AM 50.9°F10.5°C 39.6°F4.2°C 65% 1.0 mph N1.6 kmh N 6.0 mph9.7 kmh 29.70 in1005.8 mb 0.00 in0.0 mm 0.00 in0.0 mm 0.00 in0.0 mm
11:29 AM 49.7°F9.8°C 39.6°F4.2°C 68% 4.0 mph N6.4 kmh N 4.0 mph6.4 kmh 29.70 in1005.8 mb 0.00 in0.0 mm 0.00 in0.0 mm 0.00 in0.0 mm
11:14 AM 51.3°F10.7°C 40.0°F4.4°C 65% 5.0 mph NE8.0 kmh NE 5.0 mph8.0 kmh 29.68 in1005.1 mb 0.00 in0.0 mm 0.00 in0.0 mm 0.00 in0.0 mm
10:59 AM 50.4°F10.2°C 41.0°F5.0°C 70% 4.0 mph ENE6.4 kmh ENE 7.0 mph11.3 kmh 29.67 in1004.7 mb 0.00 in0.0 mm 0.00 in0.0 mm 0.00 in0.0 mm
10:44 AM 50.9°F10.5°C 41.5°F5.3°C 70% 6.0 mph NE9.7 kmh NE 10.0 mph16.1 kmh 29.68 in1005.1 mb 0.00 in0.0 mm 0.00 in0.0 mm 0.00 in0.0 mm
10:29 AM 49.2°F9.6°C 41.6°F5.3°C 75% 4.0 mph N6.4 kmh N 9.0 mph14.5 kmh 29.67 in1004.7 mb 0.00 in0.0 mm 0.00 in0.0 mm 0.00 in0.0 mm
10:14 AM 50.1°F10.1°C 41.8°F5.4°C 73% 3.0 mph NE4.8 kmh NE 7.0 mph11.3 kmh 29.68 in1005.1 mb 0.00 in0.0 mm 0.00 in0.0 mm 0.00 in0.0 mm
09:59 AM 49.4°F9.7°C 41.8°F5.4°C 75% 2.0 mph N3.2 kmh N 5.0 mph8.0 kmh 29.68 in1005.1 mb 0.00 in0.0 mm 0.00 in0.0 mm 0.00 in0.0 mm
09:44 AM 48.4°F9.1°C 42.5°F5.8°C 80% 4.0 mph NNE6.4 kmh NNE 5.0 mph8.0 kmh 29.67 in1004.7 mb 0.00 in0.0 mm 0.00 in0.0 mm 0.00 in0.0 mm
09:29 AM 47.5°F8.6°C 43.8°F6.6°C 87% 2.0 mph E3.2 kmh E 5.0 mph8.0 kmh 29.67 in1004.7 mb 0.00 in0.0 mm 0.00 in0.0 mm 0.00 in0.0 mm
09:14 AM 47.2°F8.4°C 43.5°F6.4°C 87% 3.0 mph N4.8 kmh N 5.0 mph8.0 kmh 29.67 in1004.7 mb 0.00 in0.0 mm 0.00 in0.0 mm 0.00 in0.0 mm
08:59 AM 48.4°F9.1°C 43.2°F6.2°C 82% 3.0 mph NE4.8 kmh NE 6.0 mph9.7 kmh 29.65 in1004.1 mb 0.00 in0.0 mm 0.00 in0.0 mm 0.00 in0.0 mm
08:44 AM 49.5°F9.7°C 42.9°F6.1°C 78% 5.0 mph N8.0 kmh N 5.0 mph8.0 kmh 29.65 in1004.1 mb 0.00 in0.0 mm 0.00 in0.0 mm 0.00 in0.0 mm
08:29 AM 48.4°F9.1°C 42.9°F6.1°C 81% 3.0 mph NNW4.8 kmh NNW 6.0 mph9.7 kmh 29.65 in1004.1 mb 0.00 in0.0 mm 0.00 in0.0 mm 0.00 in0.0 mm
08:14 AM 49.7°F9.8°C 41.4°F5.2°C 73% 2.0 mph N3.2 kmh N 7.0 mph11.3 kmh 29.64 in1003.7 mb 0.00 in0.0 mm 0.00 in0.0 mm 0.00 in0.0 mm
07:59 AM 48.4°F9.1°C 40.5°F4.7°C 74% 3.0 mph SW4.8 kmh SW 3.0 mph4.8 kmh 29.67 in1004.7 mb 0.00 in0.0 mm 0.00 in0.0 mm 0.00 in0.0 mm
07:44 AM 45.4°F7.4°C 38.6°F3.7°C 77% 1.0 mph SSE1.6 kmh SSE 2.0 mph3.2 kmh 29.69 in1005.4 mb 0.00 in0.0 mm 0.00 in0.0 mm 0.00 in0.0 mm
07:29 AM 43.8°F6.6°C 37.1°F2.8°C 77% Calm Calm -- 29.68 in1005.1 mb 0.00 in0.0 mm 0.00 in0.0 mm 0.00 in0.0 mm
07:14 AM 42.8°F6.0°C 35.4°F1.9°C 75% 2.0 mph SSE3.2 kmh SSE 3.0 mph4.8 kmh 29.66 in1004.4 mb 0.00 in0.0 mm 0.00 in0.0 mm 0.00 in0.0 mm
06:59 AM 42.4°F5.8°C 34.7°F1.5°C 74% 1.0 mph S1.6 kmh S 2.0 mph3.2 kmh 29.67 in1004.7 mb 0.00 in0.0 mm 0.00 in0.0 mm 0.00 in0.0 mm
06:44 AM 42.2°F5.7°C 34.5°F1.4°C 74% Calm Calm 1.0 mph1.6 kmh 29.67 in1004.7 mb 0.00 in0.0 mm 0.00 in0.0 mm 0.00 in0.0 mm
06:29 AM 42.4°F5.8°C 35.1°F1.7°C 75% 1.0 mph S1.6 kmh S 3.0 mph4.8 kmh 29.67 in1004.7 mb 0.00 in0.0 mm 0.00 in0.0 mm 0.00 in0.0 mm
06:14 AM 41.9°F5.5°C 34.6°F1.4°C 75% 3.0 mph SSE4.8 kmh SSE 4.0 mph6.4 kmh 29.63 in1003.4 mb 0.00 in0.0 mm 0.00 in0.0 mm 0.00 in0.0 mm
05:59 AM 42.1°F5.6°C 34.4°F1.3°C 74% 4.0 mph SSE6.4 kmh SSE 5.0 mph8.0 kmh 29.62 in1003.0 mb 0.00 in0.0 mm 0.00 in0.0 mm 0.00 in0.0 mm
05:44 AM 43.1°F6.2°C 35.1°F1.7°C 73% 1.0 mph SSE1.6 kmh SSE 2.0 mph3.2 kmh 29.62 in1003.0 mb 0.00 in0.0 mm 0.00 in0.0 mm 0.00 in0.0 mm
05:29 AM 43.1°F6.2°C 35.1°F1.7°C 73% 3.0 mph SSE4.8 kmh SSE 3.0 mph4.8 kmh 29.62 in1003.0 mb 0.00 in0.0 mm 0.00 in0.0 mm 0.00 in0.0 mm
05:14 AM 42.8°F6.0°C 34.8°F1.6°C 73% Calm Calm 2.0 mph3.2 kmh 29.62 in1003.0 mb 0.00 in0.0 mm 0.00 in0.0 mm 0.00 in0.0 mm
04:59 AM 43.2°F6.2°C 34.8°F1.6°C 72% Calm Calm -- 29.62 in1003.0 mb 0.00 in0.0 mm 0.00 in0.0 mm 0.00 in0.0 mm
04:44 AM 43.4°F6.3°C 35.3°F1.8°C 73% Calm Calm -- 29.61 in1002.7 mb 0.00 in0.0 mm 0.00 in0.0 mm 0.00 in0.0 mm
04:29 AM 43.9°F6.6°C 35.1°F1.7°C 71% Calm Calm 1.0 mph1.6 kmh 29.61 in1002.7 mb 0.00 in0.0 mm 0.00 in0.0 mm 0.00 in0.0 mm
04:14 AM 44.8°F7.1°C 35.3°F1.8°C 69% Calm Calm -- 29.59 in1002.0 mb 0.00 in0.0 mm 0.00 in0.0 mm 0.00 in0.0 mm
03:59 AM 46.1°F7.8°C 35.4°F1.9°C 66% Calm Calm -- 29.59 in1002.0 mb 0.00 in0.0 mm 0.00 in0.0 mm 0.00 in0.0 mm
03:44 AM 47.2°F8.4°C 36.8°F2.7°C 67% 1.0 mph S1.6 kmh S 2.0 mph3.2 kmh 29.59 in1002.0 mb 0.00 in0.0 mm 0.00 in0.0 mm 0.00 in0.0 mm
03:29 AM 47.3°F8.5°C 36.5°F2.5°C 66% 2.0 mph SSE3.2 kmh SSE 4.0 mph6.4 kmh 29.58 in1001.7 mb 0.00 in0.0 mm 0.00 in0.0 mm 0.00 in0.0 mm
03:14 AM 47.8°F8.8°C 37.0°F2.8°C 66% 2.0 mph SSE3.2 kmh SSE 3.0 mph4.8 kmh 29.57 in1001.4 mb 0.00 in0.0 mm 0.00 in0.0 mm 0.00 in0.0 mm
02:59 AM 50.0°F10.0°C 37.5°F3.1°C 62% 2.0 mph S3.2 kmh S 4.0 mph6.4 kmh 29.57 in1001.4 mb 0.00 in0.0 mm 0.00 in0.0 mm 0.00 in0.0 mm
02:44 AM 50.1°F10.1°C 37.6°F3.1°C 62% 4.0 mph SSE6.4 kmh SSE 5.0 mph8.0 kmh 29.58 in1001.7 mb 0.00 in0.0 mm 0.00 in0.0 mm 0.00 in0.0 mm
02:29 AM 49.7°F9.8°C 36.8°F2.7°C 61% 3.0 mph S4.8 kmh S 5.0 mph8.0 kmh 29.58 in1001.7 mb 0.00 in0.0 mm 0.00 in0.0 mm 0.00 in0.0 mm
02:14 AM 49.1°F9.5°C 36.7°F2.6°C 62% 3.0 mph S4.8 kmh S 8.0 mph12.9 kmh 29.59 in1002.0 mb 0.00 in0.0 mm 0.00 in0.0 mm 0.00 in0.0 mm
01:59 AM 47.3°F8.5°C 36.2°F2.3°C 65% 4.0 mph S6.4 kmh S 4.0 mph6.4 kmh 29.61 in1002.7 mb 0.00 in0.0 mm 0.00 in0.0 mm 0.00 in0.0 mm
01:44 AM 45.7°F7.6°C 33.4°F0.8°C 62% 3.0 mph SSE4.8 kmh SSE 10.0 mph16.1 kmh 29.61 in1002.7 mb 0.00 in0.0 mm 0.00 in0.0 mm 0.00 in0.0 mm
01:29 AM 45.8°F7.7°C 33.1°F0.6°C 61% 4.0 mph S6.4 kmh S 5.0 mph8.0 kmh 29.61 in1002.7 mb 0.00 in0.0 mm 0.00 in0.0 mm 0.00 in0.0 mm
01:14 AM 47.2°F8.4°C 33.6°F0.9°C 59% 6.0 mph S9.7 kmh S 10.0 mph16.1 kmh 29.61 in1002.7 mb 0.00 in0.0 mm 0.00 in0.0 mm 0.00 in0.0 mm
12:59 AM 47.3°F8.5°C 33.3°F0.7°C 58% 5.0 mph SSE8.0 kmh SSE 9.0 mph14.5 kmh 29.62 in1003.0 mb 0.00 in0.0 mm 0.00 in0.0 mm 0.00 in0.0 mm
12:44 AM 48.4°F9.1°C 34.3°F1.3°C 58% 6.0 mph S9.7 kmh S 7.0 mph11.3 kmh 29.61 in1002.7 mb 0.00 in0.0 mm 0.00 in0.0 mm 0.00 in0.0 mm
12:29 AM 48.5°F9.2°C 34.4°F1.3°C 58% 4.0 mph S6.4 kmh S 6.0 mph9.7 kmh 29.61 in1002.7 mb 0.00 in0.0 mm 0.00 in0.0 mm 0.00 in0.0 mm
12:14 AM 49.5°F9.7°C 34.5°F1.4°C 56% 6.0 mph SSE9.7 kmh SSE 12.0 mph19.3 kmh 29.62 in1003.0 mb 0.00 in0.0 mm 0.00 in0.0 mm 0.00 in0.0 mm